Terminal Aerodrome Forecast
Issued by NWS

Home | Current Version | Previous Version | Text Only | Print | Product List | Glossary On
Versions: 1 2 3 4 5 6 7 8 9 10 11 12 13 14 15 16 17 18 19 20 21 22 23
000
FTUS45 KGJT 201734
TAFMTJ
TAF
KMTJ 201734Z 2018/2118 14011KT P6SM SKC
     FM201900 33007KT P6SM FEW120
     FM202100 01007KT P6SM SCT120 BKN250
     FM210200 14005KT P6SM VCSH FEW120 BKN250
     FM210600 14006KT P6SM VCSH SCT050 BKN100
     FM211200 14008KT P6SM VCSH SCT040 BKN070=

USA.gov is the U.S. government's official web portal to all federal, state and local government web resources and services.